Terminal Aerodrome Forecast
Issued by NWS

Home | Current Version | Previous Version | Text Only | Print | Product List | Glossary On
Versions: 1 2 3 4 5 6 7 8 9 10 11 12 13 14 15 16 17 18
971
FTUS43 KDTX 010520
TAFMBS
TAF
KMBS 010520Z 0106/0206 05006KT 4SM -RA BR BKN015 OVC050
     FM010900 05006KT 3SM BR OVC007
     FM011000 04010KT 4SM RA BR OVC012
     FM011500 05013KT 5SM -SHRA BR OVC015
     FM011900 04010KT P6SM OVC020
     FM020000 05008KT P6SM OVC050=

USA.gov is the U.S. government's official web portal to all federal, state and local government web resources and services.